Time;durP1;ratioP1;P1;durP2;ratioP2;P2;SDS_P1;SDS_P2;PMS_P1;PMS_P2;Temp;Humidity;BMP_temperature;BMP_pressure;BME280_temperature;BME280_humidity;BME280_pressure;Samples;Min_cycle;Max_cycle;Signal;HPM_P1;HPM_P2
2021/05/23 00:01:19;;;;;;;2.55;1.30;;;14.20;59.80;;;;;;6160881;23;20004;-90
2021/05/23 00:03:44;;;;;;;1.30;1.20;;;14.10;59.80;;;;;;6160473;23;20013;-90
2021/05/23 00:06:16;;;;;;;1.02;1.00;;;14.00;59.90;;;;;;6161440;23;20001;-92
2021/05/23 00:08:41;;;;;;;4.20;1.70;;;14.00;60.10;;;;;;6161679;23;20025;-90
2021/05/23 00:11:09;;;;;;;2.53;1.70;;;13.90;60.40;;;;;;6161342;23;20001;-90
2021/05/23 00:13:40;;;;;;;2.50;1.70;;;13.90;60.60;;;;;;6161696;23;20016;-89
2021/05/23 00:16:12;;;;;;;1.65;1.50;;;13.80;60.70;;;;;;6160537;23;20063;-90
2021/05/23 00:18:41;;;;;;;1.50;1.40;;;13.70;60.80;;;;;;6160773;23;20096;-90
2021/05/23 00:21:08;;;;;;;1.50;1.40;;;13.70;61.10;;;;;;6160576;23;20013;-89
2021/05/23 00:23:34;;;;;;;2.25;1.50;;;13.60;61.40;;;;;;6160831;23;20494;-90
2021/05/23 00:26:01;;;;;;;2.00;1.67;;;13.50;61.70;;;;;;6160822;23;20013;-90
2021/05/23 00:28:28;;;;;;;3.10;1.40;;;13.40;62.10;;;;;;6161135;23;20058;-90
2021/05/23 00:30:54;;;;;;;1.95;1.75;;;13.30;62.20;;;;;;6161401;23;20001;-89
2021/05/23 00:33:20;;;;;;;8.13;3.80;;;13.30;62.30;;;;;;6187052;23;20015;-89
2021/05/23 00:35:45;;;;;;;4.20;2.90;;;13.20;62.70;;;;;;6186777;23;20016;-90
2021/05/23 00:38:12;;;;;;;4.47;2.80;;;13.20;62.90;;;;;;6161052;23;20406;-90
2021/05/23 00:40:39;;;;;;;3.47;2.70;;;13.20;63.20;;;;;;6160628;23;20009;-90
2021/05/23 00:43:15;;;;;;;3.63;2.75;;;13.20;63.70;;;;;;6160550;23;20016;-89
2021/05/23 00:45:42;;;;;;;6.60;2.40;;;13.10;64.00;;;;;;6160788;23;20001;-90
2021/05/23 00:48:11;;;;;;;3.72;2.20;;;13.10;64.20;;;;;;6160476;23;20009;-92
2021/05/23 00:50:37;;;;;;;8.45;3.10;;;13.10;64.30;;;;;;6163154;23;20005;-90
2021/05/23 00:53:04;;;;;;;4.18;2.42;;;13.10;65.10;;;;;;6161497;23;20012;-89
2021/05/23 00:55:31;;;;;;;2.78;2.47;;;13.10;65.30;;;;;;6163886;23;20441;-90
2021/05/23 00:57:57;;;;;;;2.78;2.50;;;13.00;65.70;;;;;;6160721;23;20084;-90
2021/05/23 01:00:44;;;;;;;3.13;2.33;;;13.10;66.10;;;;;;6161045;23;20020;-89
2021/05/23 01:03:26;;;;;;;3.55;2.88;;;13.10;66.60;;;;;;6160940;23;20008;-90
2021/05/23 01:05:59;;;;;;;3.83;2.78;;;13.20;67.30;;;;;;6160949;23;20012;-91
2021/05/23 01:08:26;;;;;;;4.88;3.08;;;13.10;67.30;;;;;;6160964;23;20012;-90
2021/05/23 01:11:04;;;;;;;4.93;3.20;;;13.20;68.00;;;;;;6162878;23;20028;-89
2021/05/23 01:13:59;;;;;;;4.32;3.08;;;13.20;68.10;;;;;;6160594;23;20017;-89
2021/05/23 01:16:31;;;;;;;4.97;3.40;;;13.20;68.20;;;;;;6186844;23;20017;-89
2021/05/23 01:19:21;;;;;;;5.53;3.38;;;13.30;68.70;;;;;;6160627;23;20250;-89
2021/05/23 01:22:28;;;;;;;5.60;3.63;;;13.30;70.60;;;;;;6160812;23;20009;-92
2021/05/23 01:25:13;;;;;;;6.07;3.65;;;13.30;69.80;;;;;;6159761;23;20009;-90
2021/05/23 01:27:48;;;;;;;6.57;3.55;;;13.30;69.60;;;;;;6161823;23;20031;-90
2021/05/23 01:30:29;;;;;;;4.72;3.50;;;13.30;69.40;;;;;;6163769;23;20009;-91
2021/05/23 01:32:58;;;;;;;10.23;4.25;;;13.40;69.30;;;;;;6161289;23;20390;-88
2021/05/23 01:35:38;;;;;;;8.50;4.38;;;13.50;69.50;;;;;;6160533;23;20013;-90
2021/05/23 01:38:11;;;;;;;6.45;4.07;;;13.50;69.80;;;;;;6161296;23;20035;-90
2021/05/23 01:40:43;;;;;;;4.72;3.30;;;13.60;69.90;;;;;;6162793;23;20005;-89
2021/05/23 01:43:10;;;;;;;6.85;3.40;;;13.70;70.00;;;;;;6161774;23;20028;-90
2021/05/23 01:45:45;;;;;;;4.82;3.20;;;13.80;69.80;;;;;;6163313;23;20001;-91
2021/05/23 01:48:21;;;;;;;5.60;3.90;;;13.90;69.30;;;;;;6164989;23;20005;-90
2021/05/23 01:50:53;;;;;;;4.63;3.25;;;14.00;68.80;;;;;;6162830;23;20435;-89
2021/05/23 01:53:19;;;;;;;4.32;3.33;;;14.10;68.60;;;;;;6161987;23;20024;-88
2021/05/23 01:56:09;;;;;;;5.65;3.75;;;14.10;68.30;;;;;;6164159;23;20016;-91
2021/05/23 01:58:43;;;;;;;5.93;3.20;;;14.20;68.10;;;;;;6186349;23;20035;-90
2021/05/23 02:01:19;;;;;;;3.50;2.88;;;14.20;67.90;;;;;;6163324;23;20019;-89
2021/05/23 02:04:00;;;;;;;3.42;2.95;;;14.30;67.80;;;;;;6160847;23;20040;-91
2021/05/23 02:06:32;;;;;;;4.65;3.30;;;14.30;67.60;;;;;;6162038;23;20010;-91
2021/05/23 02:08:58;;;;;;;3.95;2.97;;;14.30;68.20;;;;;;6164130;23;20005;-89
2021/05/23 02:11:55;;;;;;;4.45;2.88;;;14.30;67.60;;;;;;6162259;23;20009;-90
2021/05/23 02:14:23;;;;;;;5.20;2.55;;;14.30;67.50;;;;;;6136723;23;20041;-90
2021/05/23 02:16:54;;;;;;;6.53;2.47;;;14.30;67.50;;;;;;6160066;23;20029;-89
2021/05/23 02:19:21;;;;;;;4.38;3.08;;;14.40;67.40;;;;;;6160478;23;20391;-89
2021/05/23 02:21:49;;;;;;;3.42;3.05;;;14.30;67.40;;;;;;6161705;23;20040;-89
2021/05/23 02:24:15;;;;;;;3.80;3.20;;;14.40;67.60;;;;;;6160510;23;20009;-89
2021/05/23 02:26:44;;;;;;;4.18;3.20;;;14.40;67.80;;;;;;6160747;23;20019;-89
2021/05/23 02:29:11;;;;;;;3.67;3.00;;;14.40;67.90;;;;;;6162089;23;20005;-89
2021/05/23 02:31:36;;;;;;;3.53;2.80;;;14.40;68.10;;;;;;6164877;23;20304;-89
2021/05/23 02:34:03;;;;;;;5.60;3.17;;;14.40;68.10;;;;;;6162274;23;20012;-91
2021/05/23 02:37:01;;;;;;;;;;;;;;;;;;;;;
2021/05/23 02:39:30;;;;;;;3.25;2.70;;;14.50;68.50;;;;;;6189094;23;20084;-91
2021/05/23 02:41:59;;;;;;;3.50;2.58;;;14.50;68.40;;;;;;6162068;23;20036;-90
2021/05/23 02:44:25;;;;;;;8.23;2.78;;;14.60;68.50;;;;;;6162473;23;20045;-90
2021/05/23 02:46:50;;;;;;;3.17;2.30;;;14.60;68.50;;;;;;6161856;23;20013;-89
2021/05/23 02:49:55;;;;;;;;;;;;;;;;;;;;;
2021/05/23 02:52:32;;;;;;;3.58;2.50;;;14.70;68.60;;;;;;6189643;23;20076;-91
2021/05/23 02:55:02;;;;;;;2.40;2.10;;;14.80;69.00;;;;;;6161854;23;20096;-91
2021/05/23 02:57:28;;;;;;;4.30;2.55;;;14.80;68.80;;;;;;6164127;23;20020;-90
2021/05/23 03:02:49;;;;;;;3.33;2.38;;;14.80;69.30;;;;;;6170090;23;20005;-89
2021/05/23 03:05:27;;;;;;;2.97;2.10;;;14.80;69.50;;;;;;6162430;23;20017;-90
2021/05/23 03:07:55;;;;;;;4.68;2.25;;;14.80;69.90;;;;;;6161971;23;20032;-89
2021/05/23 03:10:56;;;;;;;3.90;2.35;;;14.80;70.10;;;;;;6163024;23;20020;-91
2021/05/23 03:13:37;;;;;;;2.75;2.40;;;14.80;70.80;;;;;;6101329;23;20301;-90
2021/05/23 03:16:21;;;;;;;3.85;2.47;;;14.80;71.80;;;;;;6164312;23;20447;-89
2021/05/23 03:18:47;;;;;;;6.83;2.33;;;14.70;71.70;;;;;;6166969;23;20024;-89
2021/05/23 03:21:13;;;;;;;4.70;2.03;;;14.70;72.80;;;;;;6165638;23;20231;-91
2021/05/23 03:27:01;;;;;;;2.20;1.88;;;14.70;73.50;;;;;;6191469;23;20066;-92
2021/05/23 03:29:26;;;;;;;3.75;1.90;;;14.80;73.70;;;;;;6167763;23;20009;-89
2021/05/23 03:31:52;;;;;;;3.15;2.10;;;14.70;74.10;;;;;;6182500;23;20032;-91
2021/05/23 03:34:21;;;;;;;4.00;2.10;;;14.80;74.70;;;;;;6183899;23;19996;-89
2021/05/23 03:36:47;;;;;;;4.32;2.25;;;14.70;75.40;;;;;;6210209;23;20024;-90
2021/05/23 03:39:15;;;;;;;5.57;2.28;;;14.70;76.20;;;;;;6184693;23;20320;-90
2021/05/23 03:41:53;;;;;;;6.53;2.25;;;14.70;76.40;;;;;;6183045;23;20005;-90
2021/05/23 03:44:19;;;;;;;2.15;1.95;;;14.70;76.80;;;;;;6181437;23;20005;-89
2021/05/23 03:46:45;;;;;;;2.33;2.05;;;14.70;77.00;;;;;;6134341;23;20057;-90
2021/05/23 03:49:26;;;;;;;2.80;2.50;;;14.70;77.40;;;;;;6106088;23;20025;-90
2021/05/23 03:51:51;;;;;;;3.13;2.20;;;14.70;77.90;;;;;;6106713;23;20010;-91
2021/05/23 03:54:31;;;;;;;2.55;2.35;;;14.60;78.70;;;;;;6103444;23;20009;-90
2021/05/23 03:57:00;;;;;;;4.68;2.60;;;14.60;80.40;;;;;;6103151;23;20021;-91
2021/05/23 03:59:26;;;;;;;3.47;2.33;;;14.60;82.70;;;;;;6102308;23;20516;-90
2021/05/23 04:01:52;;;;;;;2.53;2.33;;;14.50;83.70;;;;;;6100790;23;20289;-90
2021/05/23 04:04:20;;;;;;;3.80;2.72;;;14.40;84.70;;;;;;6099799;23;20435;-90
2021/05/23 04:06:47;;;;;;;2.92;2.40;;;14.40;85.60;;;;;;6124676;23;20089;-90
2021/05/23 04:09:13;;;;;;;2.70;2.00;;;14.40;85.90;;;;;;6104602;23;20006;-90
2021/05/23 04:11:42;;;;;;;2.15;1.95;;;14.40;86.40;;;;;;6101271;23;20459;-90
2021/05/23 04:14:09;;;;;;;2.95;2.40;;;14.50;86.40;;;;;;6099228;23;20010;-90
2021/05/23 04:16:35;;;;;;;1.98;1.60;;;14.60;86.70;;;;;;6100069;23;20465;-90
2021/05/23 04:19:01;;;;;;;2.67;2.28;;;14.70;87.50;;;;;;6099814;23;20002;-90
2021/05/23 04:21:27;;;;;;;4.22;2.25;;;14.90;87.10;;;;;;6099254;23;20106;-90
2021/05/23 04:23:52;;;;;;;4.88;2.15;;;15.00;87.20;;;;;;6123720;23;20012;-90
2021/05/23 04:26:18;;;;;;;2.20;2.00;;;15.10;87.10;;;;;;6164492;23;20005;-90
2021/05/23 04:28:44;;;;;;;3.40;2.35;;;15.30;87.00;;;;;;6163791;23;20040;-89
2021/05/23 04:31:10;;;;;;;3.55;2.28;;;15.40;86.60;;;;;;6162130;23;20039;-90
2021/05/23 04:33:35;;;;;;;3.75;2.35;;;15.60;86.20;;;;;;6163554;23;20320;-89
2021/05/23 04:36:04;;;;;;;3.70;2.65;;;15.80;85.70;;;;;;6189779;23;20021;-91
2021/05/23 04:38:30;;;;;;;2.72;2.50;;;15.90;84.70;;;;;;6164358;23;20084;-90
2021/05/23 04:40:56;;;;;;;3.47;2.70;;;16.10;84.20;;;;;;6162254;23;20016;-90
2021/05/23 04:43:22;;;;;;;3.92;2.50;;;16.30;83.90;;;;;;6189307;23;20024;-89
2021/05/23 04:45:47;;;;;;;2.63;2.35;;;16.50;82.80;;;;;;6162281;23;20005;-89
2021/05/23 04:48:16;;;;;;;2.20;2.00;;;16.70;81.90;;;;;;6162230;23;20012;-90
2021/05/23 04:50:42;;;;;;;3.42;2.47;;;16.90;81.10;;;;;;6160957;23;20013;-90
2021/05/23 04:53:08;;;;;;;3.25;2.40;;;17.20;80.00;;;;;;6160717;23;20080;-91
2021/05/23 04:55:34;;;;;;;3.17;2.30;;;17.40;78.00;;;;;;6161439;23;20177;-89
2021/05/23 04:58:03;;;;;;;3.40;1.85;;;17.50;77.10;;;;;;6162223;23;20063;-89
2021/05/23 05:00:29;;;;;;;3.47;2.50;;;17.60;76.60;;;;;;6161921;23;20383;-89
2021/05/23 05:02:55;;;;;;;2.97;2.50;;;17.80;76.10;;;;;;6189711;23;20036;-90
2021/05/23 05:05:21;;;;;;;3.80;2.20;;;17.80;75.60;;;;;;6182135;23;20005;-90
2021/05/23 05:07:47;;;;;;;2.50;2.30;;;17.90;75.30;;;;;;6171778;23;20020;-90
2021/05/23 05:10:13;;;;;;;2.92;2.40;;;17.90;75.00;;;;;;6166272;23;20423;-91
2021/05/23 05:12:40;;;;;;;3.08;2.47;;;18.00;74.80;;;;;;6168022;23;20088;-90
2021/05/23 05:15:08;;;;;;;3.72;2.60;;;18.10;74.60;;;;;;6164039;23;20076;-91
2021/05/23 05:17:37;;;;;;;2.40;2.20;;;18.20;74.10;;;;;;6169430;23;20040;-92
2021/05/23 05:20:05;;;;;;;2.50;2.30;;;18.30;73.10;;;;;;6162401;23;20008;-90
2021/05/23 05:22:31;;;;;;;2.75;2.33;;;18.30;72.60;;;;;;6160860;23;20060;-90
2021/05/23 05:24:56;;;;;;;2.30;2.10;;;18.30;72.70;;;;;;6161384;23;20009;-92
2021/05/23 05:27:25;;;;;;;2.75;1.92;;;18.30;72.10;;;;;;6162610;23;20013;-90
2021/05/23 05:29:50;;;;;;;2.83;1.90;;;18.40;72.00;;;;;;6165347;23;20005;-91
2021/05/23 05:32:23;;;;;;;2.20;2.00;;;18.40;72.10;;;;;;6188639;23;20071;-87
2021/05/23 05:35:14;;;;;;;2.20;2.00;;;18.50;72.10;;;;;;6189398;23;20060;-91
2021/05/23 05:37:42;;;;;;;3.30;2.22;;;18.60;71.70;;;;;;6162021;23;20041;-89
2021/05/23 05:40:24;;;;;;;3.90;2.10;;;18.90;72.20;;;;;;6162755;23;20004;-91
2021/05/23 05:43:05;;;;;;;2.47;2.03;;;19.60;72.20;;;;;;6123466;23;20380;-89
2021/05/23 05:45:30;;;;;;;2.40;1.83;;;20.20;71.30;;;;;;6125513;23;20005;-90
2021/05/23 05:48:02;;;;;;;2.67;1.52;;;20.80;69.70;;;;;;6100964;23;20064;-91
2021/05/23 05:50:28;;;;;;;3.17;2.13;;;21.50;68.60;;;;;;6125386;23;20009;-91
2021/05/23 05:53:06;;;;;;;3.13;2.05;;;21.90;66.00;;;;;;6100751;23;20010;-92
2021/05/23 05:55:39;;;;;;;2.28;1.65;;;22.20;64.20;;;;;;6100564;23;20006;-87
2021/05/23 05:58:05;;;;;;;3.53;2.08;;;22.20;63.50;;;;;;6101234;23;20017;-91
2021/05/23 06:00:39;;;;;;;2.40;1.85;;;22.10;62.80;;;;;;6102870;23;20013;-90
2021/05/23 06:03:05;;;;;;;2.95;2.33;;;22.10;62.40;;;;;;6101866;23;20526;-90
2021/05/23 06:05:30;;;;;;;5.47;1.63;;;22.20;62.50;;;;;;6101600;23;20029;-91
2021/05/23 06:07:56;;;;;;;1.65;1.48;;;22.50;62.30;;;;;;6101065;23;20013;-90
2021/05/23 06:10:23;;;;;;;1.90;1.73;;;23.00;62.40;;;;;;6124281;23;20049;-88
2021/05/23 06:12:51;;;;;;;1.67;1.50;;;23.50;61.20;;;;;;6106019;23;20081;-90
2021/05/23 06:15:17;;;;;;;2.53;1.48;;;23.60;59.60;;;;;;6160966;23;20009;-89
2021/05/23 06:20:29;;;;;;;1.30;1.20;;;23.60;58.70;;;;;;6156528;23;20005;-89
2021/05/23 06:22:55;;;;;;;2.40;1.40;;;23.80;58.80;;;;;;6161537;23;20009;-90
2021/05/23 06:25:44;;;;;;;1.85;1.35;;;24.10;58.90;;;;;;6160134;23;20059;-91
2021/05/23 06:28:10;;;;;;;3.28;1.67;;;24.60;57.50;;;;;;6144412;23;20013;-89
2021/05/23 06:30:38;;;;;;;1.70;1.35;;;25.40;58.30;;;;;;6159606;23;20096;-91
2021/05/23 06:33:04;;;;;;;1.48;1.15;;;26.10;56.50;;;;;;6160377;23;20565;-90
2021/05/23 06:35:33;;;;;;;1.70;1.27;;;26.40;54.90;;;;;;6162422;23;20025;-90
2021/05/23 06:37:59;;;;;;;1.85;1.17;;;26.30;54.20;;;;;;6163220;23;20032;-90
2021/05/23 06:40:25;;;;;;;3.60;1.20;;;26.60;54.90;;;;;;6160341;23;20029;-91
2021/05/23 06:42:51;;;;;;;1.50;1.20;;;27.00;54.00;;;;;;6161109;23;20035;-90
2021/05/23 06:45:16;;;;;;;3.75;1.52;;;27.40;54.20;;;;;;6160382;23;20371;-91
2021/05/23 06:47:42;;;;;;;2.17;1.20;;;27.90;53.70;;;;;;6161007;23;20009;-89
2021/05/23 06:50:09;;;;;;;1.48;1.25;;;28.50;53.00;;;;;;6159885;23;20005;-89
2021/05/23 06:52:35;;;;;;;1.30;1.10;;;29.10;52.00;;;;;;6160964;23;20051;-89
2021/05/23 06:55:00;;;;;;;1.73;1.40;;;29.50;50.50;;;;;;6161430;23;20029;-89
2021/05/23 06:57:28;;;;;;;3.08;1.23;;;29.90;50.20;;;;;;6189834;23;20051;-91
2021/05/23 06:59:54;;;;;;;2.00;1.27;;;30.20;49.80;;;;;;6162708;23;20009;-90
2021/05/23 07:02:20;;;;;;;1.38;1.20;;;30.30;48.40;;;;;;6161200;23;20335;-90
2021/05/23 07:04:47;;;;;;;0.98;0.98;;;30.40;48.40;;;;;;6159663;23;20469;-89
2021/05/23 07:07:19;;;;;;;2.83;1.40;;;30.80;48.10;;;;;;6160177;23;20004;-93
2021/05/23 07:09:52;;;;;;;2.45;1.35;;;31.10;46.70;;;;;;6187563;23;20021;-92
2021/05/23 07:12:24;;;;;;;2.40;1.20;;;31.10;46.70;;;;;;6162125;23;20028;-89
2021/05/23 07:14:50;;;;;;;1.30;1.20;;;30.90;45.60;;;;;;6161830;23;20016;-86
2021/05/23 07:17:18;;;;;;;1.88;1.25;;;31.00;46.40;;;;;;6162418;23;20157;-92
2021/05/23 07:19:47;;;;;;;1.20;1.10;;;31.30;45.80;;;;;;6163842;23;20075;-91
2021/05/23 07:22:23;;;;;;;;;;;;;;;;;;;;;
2021/05/23 07:25:23;;;;;;;2.78;1.30;;;32.00;45.50;;;;;;6194299;23;20033;-90
2021/05/23 07:27:49;;;;;;;3.92;0.93;;;32.30;43.90;;;;;;6188074;23;20009;-89
2021/05/23 07:30:23;;;;;;;1.10;1.00;;;31.90;44.00;;;;;;6165482;23;20028;-92
2021/05/23 07:32:49;;;;;;;2.78;1.00;;;31.90;44.00;;;;;;6190805;23;20016;-90
2021/05/23 07:35:15;;;;;;;1.27;1.15;;;31.80;43.90;;;;;;6163765;23;20009;-93
2021/05/23 07:37:41;;;;;;;1.20;1.10;;;31.60;43.50;;;;;;6163284;23;20025;-89
2021/05/23 07:40:07;;;;;;;1.70;1.15;;;31.20;43.30;;;;;;6162496;23;20012;-88
2021/05/23 07:42:33;;;;;;;2.78;1.10;;;30.70;43.80;;;;;;6162242;23;20008;-89
2021/05/23 07:44:59;;;;;;;1.20;1.10;;;30.50;44.30;;;;;;6161541;23;20091;-90
2021/05/23 07:47:25;;;;;;;1.08;0.98;;;30.60;44.10;;;;;;6161917;23;20001;-88
2021/05/23 07:49:51;;;;;;;1.40;0.88;;;30.60;43.50;;;;;;6161590;23;20013;-90
2021/05/23 07:52:17;;;;;;;1.27;1.08;;;30.70;43.10;;;;;;6162780;23;20028;-87
2021/05/23 07:54:42;;;;;;;1.45;1.02;;;31.10;43.10;;;;;;6161993;23;20036;-86
2021/05/23 07:57:09;;;;;;;2.22;1.00;;;31.60;42.40;;;;;;6163644;23;20435;-87
2021/05/23 07:59:35;;;;;;;3.08;0.90;;;31.80;41.90;;;;;;6161552;23;20009;-90
2021/05/23 08:02:04;;;;;;;3.00;0.93;;;31.60;41.60;;;;;;6161037;23;20009;-91
2021/05/23 08:04:29;;;;;;;2.67;0.98;;;31.20;41.40;;;;;;6161423;23;20013;-90
2021/05/23 08:06:58;;;;;;;0.93;0.80;;;31.00;42.40;;;;;;6163596;23;20411;-91
2021/05/23 08:09:24;;;;;;;1.50;0.93;;;30.90;42.20;;;;;;6149724;23;20021;-87
2021/05/23 08:11:50;;;;;;;1.20;0.90;;;30.50;42.20;;;;;;6187678;23;20069;-90
2021/05/23 08:14:16;;;;;;;1.73;1.00;;;30.50;43.10;;;;;;6161208;23;20510;-90
2021/05/23 08:16:46;;;;;;;0.80;0.80;;;30.40;42.50;;;;;;6161897;23;20068;-86
2021/05/23 08:19:12;;;;;;;1.27;0.90;;;30.90;43.30;;;;;;6160808;23;20005;-88
2021/05/23 08:21:39;;;;;;;1.05;0.95;;;31.60;43.20;;;;;;6163519;23;20005;-87
2021/05/23 08:24:06;;;;;;;1.42;1.00;;;32.30;41.80;;;;;;6170541;23;20009;-87
2021/05/23 08:26:33;;;;;;;1.02;0.73;;;32.40;41.40;;;;;;6190224;23;20435;-89
2021/05/23 08:28:59;;;;;;;3.33;1.10;;;32.40;41.20;;;;;;6166804;23;20469;-87
2021/05/23 08:31:25;;;;;;;2.65;1.20;;;32.10;40.50;;;;;;6163633;23;20005;-88
2021/05/23 08:33:51;;;;;;;1.00;0.90;;;31.70;40.30;;;;;;6170073;23;20372;-88
2021/05/23 08:36:17;;;;;;;1.20;0.82;;;31.20;40.30;;;;;;6163319;23;20025;-89
2021/05/23 08:38:43;;;;;;;0.80;0.75;;;31.00;40.90;;;;;;6161288;23;20012;-89
2021/05/23 08:41:09;;;;;;;1.95;0.90;;;31.00;40.90;;;;;;6161075;23;20403;-89
2021/05/23 08:43:35;;;;;;;1.00;0.90;;;30.80;40.30;;;;;;6160725;23;20009;-89
2021/05/23 08:46:02;;;;;;;0.75;0.75;;;30.70;40.90;;;;;;6160685;23;20453;-87
2021/05/23 08:48:28;;;;;;;1.48;0.80;;;31.20;41.20;;;;;;6160396;23;20017;-88
2021/05/23 08:50:54;;;;;;;1.15;0.82;;;31.90;41.50;;;;;;6160763;23;20005;-89
2021/05/23 08:53:21;;;;;;;1.25;1.00;;;32.80;40.20;;;;;;6161157;23;20090;-89
2021/05/23 08:55:47;;;;;;;1.63;0.90;;;33.20;39.40;;;;;;6160554;23;20017;-88
2021/05/23 08:58:12;;;;;;;1.50;1.00;;;33.40;38.90;;;;;;6187136;23;20475;-87
2021/05/23 09:00:38;;;;;;;1.33;1.00;;;33.60;39.10;;;;;;6162587;23;20084;-90
2021/05/23 09:03:07;;;;;;;2.35;0.70;;;33.90;38.90;;;;;;6160866;23;20032;-87
2021/05/23 09:05:43;;;;;;;0.85;0.80;;;34.60;38.50;;;;;;6161505;23;20005;-90
2021/05/23 09:08:14;;;;;;;0.73;0.60;;;34.60;37.00;;;;;;6160691;23;20068;-88
2021/05/23 09:10:41;;;;;;;1.00;0.60;;;33.90;37.10;;;;;;6160581;23;20009;-88
2021/05/23 09:13:07;;;;;;;0.82;0.50;;;33.20;37.50;;;;;;6186815;23;20084;-88
2021/05/23 09:15:33;;;;;;;0.77;0.70;;;32.90;38.00;;;;;;6161001;23;20009;-87
2021/05/23 09:18:01;;;;;;;1.55;0.65;;;33.40;38.20;;;;;;6160593;23;20040;-86
2021/05/23 09:20:27;;;;;;;0.98;0.70;;;33.90;37.50;;;;;;6160573;23;20016;-87
2021/05/23 09:22:54;;;;;;;2.92;0.70;;;34.00;36.30;;;;;;6161292;23;20012;-89
2021/05/23 09:25:29;;;;;;;0.73;0.63;;;34.00;36.10;;;;;;6160436;23;20012;-89
2021/05/23 09:27:55;;;;;;;1.83;0.82;;;34.50;35.30;;;;;;6162095;23;20136;-89
2021/05/23 09:30:25;;;;;;;1.15;0.70;;;35.30;35.50;;;;;;6162002;23;20070;-88
2021/05/23 09:32:57;;;;;;;1.73;0.80;;;35.60;34.90;;;;;;6161279;23;20005;-89
2021/05/23 09:35:23;;;;;;;0.75;0.70;;;35.80;34.50;;;;;;6161126;23;20009;-86
2021/05/23 09:38:02;;;;;;;0.65;0.50;;;36.00;34.60;;;;;;6161937;23;20040;-92
2021/05/23 09:40:34;;;;;;;0.43;0.43;;;36.30;33.60;;;;;;6160633;23;20013;-88
2021/05/23 09:43:01;;;;;;;2.60;0.52;;;35.80;32.70;;;;;;6160518;23;20079;-89
2021/05/23 09:45:49;;;;;;;0.50;0.50;;;34.90;33.10;;;;;;6159919;23;20013;-88
2021/05/23 09:48:19;;;;;;;1.05;0.50;;;34.00;33.50;;;;;;6186952;23;20009;-88
2021/05/23 09:50:47;;;;;;;0.43;0.43;;;33.20;34.50;;;;;;6160567;23;20490;-88
2021/05/23 09:53:17;;;;;;;0.82;0.60;;;33.20;35.00;;;;;;6160436;23;20013;-88
2021/05/23 09:56:06;;;;;;;0.60;0.60;;;33.80;35.00;;;;;;6186437;23;20313;-88
2021/05/23 09:58:36;;;;;;;0.50;0.50;;;34.20;33.90;;;;;;6160876;23;20009;-89
2021/05/23 10:01:03;;;;;;;0.57;0.55;;;34.20;33.20;;;;;;6156126;23;20028;-90
2021/05/23 10:03:34;;;;;;;0.60;0.47;;;34.60;33.10;;;;;;6182509;23;20009;-92
2021/05/23 10:06:00;;;;;;;1.80;0.50;;;34.60;32.70;;;;;;6185477;23;19993;-89
2021/05/23 10:08:30;;;;;;;0.80;0.50;;;34.50;33.20;;;;;;6187947;23;20005;-90
2021/05/23 10:10:57;;;;;;;0.73;0.57;;;34.90;33.40;;;;;;6186215;23;20001;-90
2021/05/23 10:13:24;;;;;;;0.52;0.52;;;35.50;33.20;;;;;;6188359;23;19993;-91
2021/05/23 10:15:54;;;;;;;4.43;0.82;;;36.10;32.80;;;;;;6187465;23;20028;-91
2021/05/23 10:18:31;;;;;;;1.95;0.60;;;36.40;32.30;;;;;;6185047;23;20964;-92
2021/05/23 10:20:59;;;;;;;1.90;0.47;;;36.90;32.40;;;;;;6150016;23;20073;-93
2021/05/23 10:23:30;;;;;;;0.50;0.50;;;37.20;31.40;;;;;;6170300;23;20072;-91
2021/05/23 10:26:01;;;;;;;2.50;0.70;;;37.50;31.20;;;;;;6132615;23;20021;-90
2021/05/23 10:28:28;;;;;;;0.50;0.50;;;37.40;31.00;;;;;;6104828;23;20010;-90
2021/05/23 10:30:57;;;;;;;0.95;0.52;;;36.80;30.50;;;;;;6105537;23;20006;-91
2021/05/23 10:33:23;;;;;;;2.30;0.70;;;36.50;31.40;;;;;;6113170;23;20030;-92
2021/05/23 10:35:53;;;;;;;0.63;0.52;;;36.30;31.40;;;;;;6110366;23;20010;-90
2021/05/23 10:38:22;;;;;;;0.45;0.45;;;36.50;31.60;;;;;;6109208;23;19998;-92
2021/05/23 10:40:51;;;;;;;1.23;0.55;;;36.30;31.20;;;;;;6111948;23;20021;-92
2021/05/23 10:43:30;;;;;;;1.52;0.60;;;36.20;31.30;;;;;;6116082;23;20022;-92
2021/05/23 10:46:25;;;;;;;1.10;0.77;;;36.30;31.50;;;;;;6115906;23;20021;-92
2021/05/23 10:48:52;;;;;;;2.03;0.57;;;36.70;31.30;;;;;;6124043;23;20010;-92
2021/05/23 10:51:19;;;;;;;0.60;0.60;;;37.00;31.80;;;;;;6133944;23;20471;-92
2021/05/23 10:53:48;;;;;;;0.88;0.70;;;37.60;31.90;;;;;;6112394;23;20010;-91
2021/05/23 10:56:31;;;;;;;0.50;0.50;;;38.00;31.00;;;;;;6109316;23;20101;-92
2021/05/23 10:59:08;;;;;;;2.53;0.43;;;38.30;30.40;;;;;;6106259;23;20010;-91
2021/05/23 11:01:45;;;;;;;0.65;0.60;;;38.50;30.60;;;;;;6109170;23;20127;-92
2021/05/23 11:04:16;;;;;;;0.50;0.50;;;38.30;30.40;;;;;;6165223;23;19989;-91
2021/05/23 11:06:45;;;;;;;0.45;0.45;;;38.00;30.60;;;;;;6173311;23;20001;-92
2021/05/23 11:09:28;;;;;;;1.27;0.50;;;36.80;29.70;;;;;;6172040;23;20059;-91
2021/05/23 11:12:18;;;;;;;0.70;0.40;;;35.90;30.90;;;;;;6170457;23;20427;-92
2021/05/23 11:14:54;;;;;;;0.40;0.40;;;35.40;30.20;;;;;;6172186;23;20009;-91
2021/05/23 11:17:21;;;;;;;1.45;0.40;;;35.60;31.30;;;;;;6172489;23;20024;-91
2021/05/23 11:19:51;;;;;;;0.57;0.40;;;36.10;31.30;;;;;;6171130;23;20016;-91
2021/05/23 11:22:16;;;;;;;0.35;0.35;;;36.40;30.90;;;;;;6174225;23;20041;-91
2021/05/23 11:24:45;;;;;;;0.40;0.40;;;35.70;30.60;;;;;;6171059;23;20423;-92
2021/05/23 11:27:19;;;;;;;1.55;0.57;;;34.80;30.70;;;;;;6167210;23;20001;-92
2021/05/23 11:29:48;;;;;;;0.65;0.60;;;34.70;31.50;;;;;;6168366;23;20017;-92
2021/05/23 11:32:15;;;;;;;0.60;0.60;;;35.30;31.90;;;;;;6167928;23;20005;-92
2021/05/23 11:34:41;;;;;;;0.38;0.38;;;36.40;31.90;;;;;;6166240;23;20085;-92
2021/05/23 11:37:07;;;;;;;0.75;0.60;;;37.50;31.30;;;;;;6165609;23;20014;-94
2021/05/23 11:39:36;;;;;;;0.50;0.50;;;38.10;30.80;;;;;;6167506;23;20052;-91
2021/05/23 11:42:04;;;;;;;2.70;0.50;;;38.40;30.50;;;;;;6167057;23;20059;-91
2021/05/23 11:44:56;;;;;;;0.40;0.40;;;38.50;30.40;;;;;;6168064;23;20028;-93
2021/05/23 11:47:22;;;;;;;0.55;0.50;;;38.20;29.70;;;;;;6160705;23;20011;-93
2021/05/23 11:49:48;;;;;;;1.45;0.50;;;37.40;29.90;;;;;;6191620;23;20025;-93
2021/05/23 11:52:17;;;;;;;0.85;0.50;;;37.00;30.40;;;;;;6169339;23;20036;-93
2021/05/23 11:54:42;;;;;;;0.50;0.50;;;37.10;30.10;;;;;;6173281;23;20009;-89
2021/05/23 11:57:09;;;;;;;1.33;0.60;;;37.60;30.50;;;;;;6177067;23;20017;-92
2021/05/23 11:59:34;;;;;;;0.57;0.57;;;38.20;30.20;;;;;;6171751;23;20013;-93
2021/05/23 12:02:01;;;;;;;0.85;0.82;;;38.70;29.70;;;;;;6163620;23;20467;-93
2021/05/23 12:04:30;;;;;;;1.40;0.90;;;38.70;29.50;;;;;;6162890;23;20013;-92
2021/05/23 12:07:02;;;;;;;0.95;0.70;;;38.60;28.80;;;;;;6165168;23;20361;-91
2021/05/23 12:09:32;;;;;;;0.60;0.60;;;38.60;28.80;;;;;;6174564;23;20019;-93
2021/05/23 12:12:03;;;;;;;1.13;0.75;;;38.60;28.00;;;;;;6166329;23;20005;-92
2021/05/23 12:14:38;;;;;;;1.00;0.88;;;38.40;28.00;;;;;;6194691;23;20080;-93
2021/05/23 12:17:19;;;;;;;1.35;1.00;;;37.80;27.80;;;;;;6166340;23;20024;-93
2021/05/23 12:19:58;;;;;;;0.98;0.57;;;37.00;28.60;;;;;;6169290;23;20009;-92
2021/05/23 12:22:35;;;;;;;0.60;0.60;;;36.80;29.00;;;;;;6170186;23;20008;-92
2021/05/23 12:25:05;;;;;;;0.88;0.60;;;37.10;29.20;;;;;;6165396;23;20025;-92
2021/05/23 12:27:40;;;;;;;2.47;0.60;;;37.60;29.30;;;;;;6164453;23;20443;-93
2021/05/23 12:30:23;;;;;;;0.85;0.85;;;38.20;29.20;;;;;;6166218;23;20017;-93
2021/05/23 12:32:58;;;;;;;0.60;0.60;;;38.40;28.40;;;;;;6164964;23;20012;-92
2021/05/23 12:35:37;;;;;;;0.45;0.40;;;38.40;28.90;;;;;;6171079;23;20427;-92
2021/05/23 12:38:13;;;;;;;0.70;0.68;;;38.50;28.60;;;;;;6172258;23;20159;-93
2021/05/23 12:40:50;;;;;;;1.00;0.80;;;38.40;28.00;;;;;;6192538;23;20028;-94
2021/05/23 12:43:22;;;;;;;1.48;0.60;;;38.10;28.30;;;;;;6164745;23;20379;-92
2021/05/23 12:46:03;;;;;;;0.32;0.32;;;38.00;28.70;;;;;;6164297;23;20080;-92
2021/05/23 12:48:41;;;;;;;0.60;0.60;;;38.30;28.90;;;;;;6167586;23;20013;-92
2021/05/23 12:51:10;;;;;;;1.90;0.65;;;38.50;28.60;;;;;;6167397;23;20013;-92
2021/05/23 12:53:54;;;;;;;0.63;0.63;;;38.20;28.60;;;;;;6169619;23;20013;-92
2021/05/23 12:56:24;;;;;;;0.73;0.52;;;38.00;28.90;;;;;;6169638;23;20017;-92
2021/05/23 12:58:55;;;;;;;0.45;0.43;;;37.90;29.20;;;;;;6167535;23;20096;-92
2021/05/23 13:01:27;;;;;;;0.65;0.60;;;37.90;29.30;;;;;;6173335;23;20016;-92
2021/05/23 13:04:01;;;;;;;0.77;0.60;;;38.30;29.00;;;;;;6176223;23;20017;-92
2021/05/23 13:06:39;;;;;;;1.10;0.55;;;38.40;28.60;;;;;;6172232;23;20036;-91
2021/05/23 13:09:05;;;;;;;0.50;0.50;;;38.20;28.20;;;;;;6171059;23;20032;-90
2021/05/23 13:11:32;;;;;;;2.15;0.70;;;37.80;28.10;;;;;;6185869;23;20005;-90
2021/05/23 13:14:01;;;;;;;0.60;0.60;;;37.70;28.00;;;;;;6213559;23;19985;-91
2021/05/23 13:16:27;;;;;;;0.85;0.65;;;37.70;27.80;;;;;;6187858;23;20048;-92